sensor_id;sensor_type;location;lat;lon;timestamp;temperature;humidity
15127;DHT22;7664;52.008;4.748;2022-08-03T00:01:33;21.30;99.90
15127;DHT22;7664;52.008;4.748;2022-08-03T00:04:02;21.30;99.90
15127;DHT22;7664;52.008;4.748;2022-08-03T00:06:30;21.30;99.90
15127;DHT22;7664;52.008;4.748;2022-08-03T00:09:03;21.20;99.90
15127;DHT22;7664;52.008;4.748;2022-08-03T00:11:33;21.20;99.90
15127;DHT22;7664;52.008;4.748;2022-08-03T00:14:01;21.20;99.90
15127;DHT22;7664;52.008;4.748;2022-08-03T00:16:29;21.20;99.90
15127;DHT22;7664;52.008;4.748;2022-08-03T00:18:57;21.20;99.90
15127;DHT22;7664;52.008;4.748;2022-08-03T00:21:26;21.10;99.90
15127;DHT22;7664;52.008;4.748;2022-08-03T00:23:54;21.10;99.90
15127;DHT22;7664;52.008;4.748;2022-08-03T00:26:22;21.10;99.90
15127;DHT22;7664;52.008;4.748;2022-08-03T00:28:51;21.10;99.90
15127;DHT22;7664;52.008;4.748;2022-08-03T00:31:19;21.00;99.90
15127;DHT22;7664;52.008;4.748;2022-08-03T00:34:07;20.90;99.90
15127;DHT22;7664;52.008;4.748;2022-08-03T00:36:35;21.00;99.90
15127;DHT22;7664;52.008;4.748;2022-08-03T00:39:03;20.90;99.90
15127;DHT22;7664;52.008;4.748;2022-08-03T00:41:31;20.90;99.90
15127;DHT22;7664;52.008;4.748;2022-08-03T00:44:00;20.90;99.90
15127;DHT22;7664;52.008;4.748;2022-08-03T00:46:28;20.90;99.90
15127;DHT22;7664;52.008;4.748;2022-08-03T00:48:56;20.90;99.90
15127;DHT22;7664;52.008;4.748;2022-08-03T00:51:24;20.90;99.90
15127;DHT22;7664;52.008;4.748;2022-08-03T00:53:52;20.90;99.90
15127;DHT22;7664;52.008;4.748;2022-08-03T00:56:20;20.90;99.90
15127;DHT22;7664;52.008;4.748;2022-08-03T00:58:48;20.80;99.90
15127;DHT22;7664;52.008;4.748;2022-08-03T01:01:18;20.70;99.90
15127;DHT22;7664;52.008;4.748;2022-08-03T01:03:46;20.80;99.90
15127;DHT22;7664;52.008;4.748;2022-08-03T01:06:16;20.70;99.90
15127;DHT22;7664;52.008;4.748;2022-08-03T01:08:50;20.70;99.90
15127;DHT22;7664;52.008;4.748;2022-08-03T01:11:25;20.70;99.90
15127;DHT22;7664;52.008;4.748;2022-08-03T01:14:01;20.80;99.90
15127;DHT22;7664;52.008;4.748;2022-08-03T01:16:54;20.70;99.90
15127;DHT22;7664;52.008;4.748;2022-08-03T01:19:35;20.70;99.90
15127;DHT22;7664;52.008;4.748;2022-08-03T01:25:13;20.60;99.90
15127;DHT22;7664;52.008;4.748;2022-08-03T01:27:57;20.60;99.90
15127;DHT22;7664;52.008;4.748;2022-08-03T01:30:32;20.60;99.90
15127;DHT22;7664;52.008;4.748;2022-08-03T01:33:04;20.50;99.90
15127;DHT22;7664;52.008;4.748;2022-08-03T01:35:38;20.60;99.90
15127;DHT22;7664;52.008;4.748;2022-08-03T01:38:10;20.50;99.90
15127;DHT22;7664;52.008;4.748;2022-08-03T01:40:39;20.40;99.90
15127;DHT22;7664;52.008;4.748;2022-08-03T01:43:12;20.40;99.90
15127;DHT22;7664;52.008;4.748;2022-08-03T01:46:03;20.40;99.90
15127;DHT22;7664;52.008;4.748;2022-08-03T01:48:32;20.40;99.90
15127;DHT22;7664;52.008;4.748;2022-08-03T01:51:03;20.40;99.90
15127;DHT22;7664;52.008;4.748;2022-08-03T01:53:32;20.40;99.90
15127;DHT22;7664;52.008;4.748;2022-08-03T01:56:01;20.40;99.90
15127;DHT22;7664;52.008;4.748;2022-08-03T01:58:31;20.40;99.90
15127;DHT22;7664;52.008;4.748;2022-08-03T02:01:04;20.60;99.90
15127;DHT22;7664;52.008;4.748;2022-08-03T02:03:35;20.30;99.90
15127;DHT22;7664;52.008;4.748;2022-08-03T02:06:24;20.30;99.90
15127;DHT22;7664;52.008;4.748;2022-08-03T02:09:14;20.30;99.90
15127;DHT22;7664;52.008;4.748;2022-08-03T02:11:44;20.30;99.90
15127;DHT22;7664;52.008;4.748;2022-08-03T02:14:15;20.20;99.90
15127;DHT22;7664;52.008;4.748;2022-08-03T02:16:45;20.30;99.90
15127;DHT22;7664;52.008;4.748;2022-08-03T02:19:15;20.30;99.90
15127;DHT22;7664;52.008;4.748;2022-08-03T02:21:45;20.30;99.90
15127;DHT22;7664;52.008;4.748;2022-08-03T02:24:23;20.30;99.90
15127;DHT22;7664;52.008;4.748;2022-08-03T02:26:52;20.30;99.90
15127;DHT22;7664;52.008;4.748;2022-08-03T02:29:25;20.30;99.90
15127;DHT22;7664;52.008;4.748;2022-08-03T02:32:09;20.30;99.90
15127;DHT22;7664;52.008;4.748;2022-08-03T02:34:40;20.20;99.90
15127;DHT22;7664;52.008;4.748;2022-08-03T02:37:10;20.20;99.90
15127;DHT22;7664;52.008;4.748;2022-08-03T02:39:40;20.20;99.90
15127;DHT22;7664;52.008;4.748;2022-08-03T02:42:09;20.20;99.90
15127;DHT22;7664;52.008;4.748;2022-08-03T02:44:39;20.20;99.90
15127;DHT22;7664;52.008;4.748;2022-08-03T02:47:16;20.10;99.90
15127;DHT22;7664;52.008;4.748;2022-08-03T02:49:48;20.10;99.90
15127;DHT22;7664;52.008;4.748;2022-08-03T02:52:19;20.10;99.90
15127;DHT22;7664;52.008;4.748;2022-08-03T02:54:52;20.10;99.90
15127;DHT22;7664;52.008;4.748;2022-08-03T02:57:22;20.10;99.90
15127;DHT22;7664;52.008;4.748;2022-08-03T02:59:52;20.10;99.90
15127;DHT22;7664;52.008;4.748;2022-08-03T03:02:23;20.00;99.90
15127;DHT22;7664;52.008;4.748;2022-08-03T03:04:52;20.10;99.90
15127;DHT22;7664;52.008;4.748;2022-08-03T03:07:42;20.00;99.90
15127;DHT22;7664;52.008;4.748;2022-08-03T03:10:19;20.00;99.90
15127;DHT22;7664;52.008;4.748;2022-08-03T03:12:49;20.00;99.90
15127;DHT22;7664;52.008;4.748;2022-08-03T03:15:18;19.90;99.90
15127;DHT22;7664;52.008;4.748;2022-08-03T03:17:48;19.90;99.90
15127;DHT22;7664;52.008;4.748;2022-08-03T03:20:17;19.90;99.90
15127;DHT22;7664;52.008;4.748;2022-08-03T03:22:57;19.90;99.90
15127;DHT22;7664;52.008;4.748;2022-08-03T03:25:27;19.90;99.90
15127;DHT22;7664;52.008;4.748;2022-08-03T03:27:55;19.80;99.90
15127;DHT22;7664;52.008;4.748;2022-08-03T03:30:24;19.90;99.90
15127;DHT22;7664;52.008;4.748;2022-08-03T03:32:53;19.90;99.90
15127;DHT22;7664;52.008;4.748;2022-08-03T03:35:21;19.90;99.90
15127;DHT22;7664;52.008;4.748;2022-08-03T03:37:50;19.90;99.90
15127;DHT22;7664;52.008;4.748;2022-08-03T03:40:18;19.90;99.90
15127;DHT22;7664;52.008;4.748;2022-08-03T03:42:46;19.90;99.90
15127;DHT22;7664;52.008;4.748;2022-08-03T03:45:14;19.80;99.90
15127;DHT22;7664;52.008;4.748;2022-08-03T03:47:43;19.80;99.90
15127;DHT22;7664;52.008;4.748;2022-08-03T03:50:14;19.80;99.90
15127;DHT22;7664;52.008;4.748;2022-08-03T03:52:44;19.70;99.90
15127;DHT22;7664;52.008;4.748;2022-08-03T03:55:15;19.70;99.90
15127;DHT22;7664;52.008;4.748;2022-08-03T03:57:44;19.70;99.90
15127;DHT22;7664;52.008;4.748;2022-08-03T04:00:14;19.70;99.90
15127;DHT22;7664;52.008;4.748;2022-08-03T04:02:43;19.70;99.90
15127;DHT22;7664;52.008;4.748;2022-08-03T04:05:13;19.70;99.90
15127;DHT22;7664;52.008;4.748;2022-08-03T04:08:00;19.70;99.90
15127;DHT22;7664;52.008;4.748;2022-08-03T04:10:54;19.70;99.90
15127;DHT22;7664;52.008;4.748;2022-08-03T04:13:29;19.70;99.90
15127;DHT22;7664;52.008;4.748;2022-08-03T04:15:58;19.70;99.90
15127;DHT22;7664;52.008;4.748;2022-08-03T04:18:29;19.60;99.90
15127;DHT22;7664;52.008;4.748;2022-08-03T04:21:02;19.60;99.90
15127;DHT22;7664;52.008;4.748;2022-08-03T04:23:34;19.60;99.90
15127;DHT22;7664;52.008;4.748;2022-08-03T04:26:07;19.60;99.90
15127;DHT22;7664;52.008;4.748;2022-08-03T04:28:39;19.60;99.90
15127;DHT22;7664;52.008;4.748;2022-08-03T04:31:08;19.60;99.90
15127;DHT22;7664;52.008;4.748;2022-08-03T04:33:38;19.60;99.90
15127;DHT22;7664;52.008;4.748;2022-08-03T04:36:13;19.60;99.90
15127;DHT22;7664;52.008;4.748;2022-08-03T04:38:51;19.60;99.90
15127;DHT22;7664;52.008;4.748;2022-08-03T04:41:20;19.60;99.90
15127;DHT22;7664;52.008;4.748;2022-08-03T04:43:50;19.60;99.90
15127;DHT22;7664;52.008;4.748;2022-08-03T04:46:22;19.70;99.90
15127;DHT22;7664;52.008;4.748;2022-08-03T04:48:50;19.70;99.90
15127;DHT22;7664;52.008;4.748;2022-08-03T04:51:20;19.60;99.90
15127;DHT22;7664;52.008;4.748;2022-08-03T04:53:48;19.60;99.90
15127;DHT22;7664;52.008;4.748;2022-08-03T04:56:16;19.60;99.90
15127;DHT22;7664;52.008;4.748;2022-08-03T04:58:44;19.60;99.90
15127;DHT22;7664;52.008;4.748;2022-08-03T05:01:12;19.60;99.90
15127;DHT22;7664;52.008;4.748;2022-08-03T05:03:39;19.60;99.90
15127;DHT22;7664;52.008;4.748;2022-08-03T05:06:07;19.70;99.90
15127;DHT22;7664;52.008;4.748;2022-08-03T05:08:38;19.60;99.90
15127;DHT22;7664;52.008;4.748;2022-08-03T05:11:12;19.70;99.90
15127;DHT22;7664;52.008;4.748;2022-08-03T05:13:40;19.70;99.90
15127;DHT22;7664;52.008;4.748;2022-08-03T05:16:08;19.80;99.90
15127;DHT22;7664;52.008;4.748;2022-08-03T05:18:37;19.70;99.90
15127;DHT22;7664;52.008;4.748;2022-08-03T05:21:05;19.70;99.90
15127;DHT22;7664;52.008;4.748;2022-08-03T05:23:33;19.80;99.90
15127;DHT22;7664;52.008;4.748;2022-08-03T05:26:03;19.80;99.90
15127;DHT22;7664;52.008;4.748;2022-08-03T05:28:31;19.90;99.90
15127;DHT22;7664;52.008;4.748;2022-08-03T05:30:59;19.90;99.90
15127;DHT22;7664;52.008;4.748;2022-08-03T05:33:27;20.00;99.90
15127;DHT22;7664;52.008;4.748;2022-08-03T05:35:55;20.10;99.90
15127;DHT22;7664;52.008;4.748;2022-08-03T05:38:29;20.10;99.90
15127;DHT22;7664;52.008;4.748;2022-08-03T05:41:03;20.20;99.90
15127;DHT22;7664;52.008;4.748;2022-08-03T05:43:48;20.30;99.90
15127;DHT22;7664;52.008;4.748;2022-08-03T05:46:17;20.40;99.90
15127;DHT22;7664;52.008;4.748;2022-08-03T05:48:45;20.50;99.90
15127;DHT22;7664;52.008;4.748;2022-08-03T05:51:12;20.60;99.90
15127;DHT22;7664;52.008;4.748;2022-08-03T05:53:41;20.80;99.90
15127;DHT22;7664;52.008;4.748;2022-08-03T05:56:11;21.20;99.90
15127;DHT22;7664;52.008;4.748;2022-08-03T05:58:43;21.90;99.90
15127;DHT22;7664;52.008;4.748;2022-08-03T06:01:12;22.60;99.90
15127;DHT22;7664;52.008;4.748;2022-08-03T06:03:40;23.30;99.90
15127;DHT22;7664;52.008;4.748;2022-08-03T06:06:08;24.00;99.90
15127;DHT22;7664;52.008;4.748;2022-08-03T06:08:37;25.00;99.90
15127;DHT22;7664;52.008;4.748;2022-08-03T06:11:06;25.80;99.90
15127;DHT22;7664;52.008;4.748;2022-08-03T06:13:35;26.50;99.90
15127;DHT22;7664;52.008;4.748;2022-08-03T06:16:03;27.30;99.90
15127;DHT22;7664;52.008;4.748;2022-08-03T06:18:33;27.90;99.90
15127;DHT22;7664;52.008;4.748;2022-08-03T06:21:01;28.30;99.90
15127;DHT22;7664;52.008;4.748;2022-08-03T06:23:42;28.60;99.90
15127;DHT22;7664;52.008;4.748;2022-08-03T06:26:22;28.70;99.90
15127;DHT22;7664;52.008;4.748;2022-08-03T06:28:51;28.60;99.90
15127;DHT22;7664;52.008;4.748;2022-08-03T06:31:22;28.70;99.90
15127;DHT22;7664;52.008;4.748;2022-08-03T06:34:02;28.80;99.90
15127;DHT22;7664;52.008;4.748;2022-08-03T06:36:50;28.90;99.90
15127;DHT22;7664;52.008;4.748;2022-08-03T06:39:19;29.10;99.90
15127;DHT22;7664;52.008;4.748;2022-08-03T06:41:50;29.30;99.90
15127;DHT22;7664;52.008;4.748;2022-08-03T06:44:19;29.30;99.90
15127;DHT22;7664;52.008;4.748;2022-08-03T06:46:47;29.40;99.90
15127;DHT22;7664;52.008;4.748;2022-08-03T06:49:16;29.60;99.90
15127;DHT22;7664;52.008;4.748;2022-08-03T06:51:45;30.00;99.90
15127;DHT22;7664;52.008;4.748;2022-08-03T06:54:32;30.40;99.90
15127;DHT22;7664;52.008;4.748;2022-08-03T06:57:00;30.80;99.90
15127;DHT22;7664;52.008;4.748;2022-08-03T06:59:29;30.70;99.90
15127;DHT22;7664;52.008;4.748;2022-08-03T07:02:17;30.60;99.90
15127;DHT22;7664;52.008;4.748;2022-08-03T07:04:46;30.10;99.90
15127;DHT22;7664;52.008;4.748;2022-08-03T07:07:14;29.50;99.90
15127;DHT22;7664;52.008;4.748;2022-08-03T07:09:43;29.30;99.90
15127;DHT22;7664;52.008;4.748;2022-08-03T07:12:24;29.10;99.90
15127;DHT22;7664;52.008;4.748;2022-08-03T07:14:54;29.40;99.90
15127;DHT22;7664;52.008;4.748;2022-08-03T07:17:28;29.70;99.90
15127;DHT22;7664;52.008;4.748;2022-08-03T07:19:56;30.00;99.90
15127;DHT22;7664;52.008;4.748;2022-08-03T07:22:24;30.50;99.90
15127;DHT22;7664;52.008;4.748;2022-08-03T07:24:53;31.00;99.90
15127;DHT22;7664;52.008;4.748;2022-08-03T07:27:21;31.50;99.90
15127;DHT22;7664;52.008;4.748;2022-08-03T07:29:48;31.50;99.90
15127;DHT22;7664;52.008;4.748;2022-08-03T07:32:18;31.70;99.90
15127;DHT22;7664;52.008;4.748;2022-08-03T07:34:46;31.80;99.90
15127;DHT22;7664;52.008;4.748;2022-08-03T07:37:14;31.80;99.40
15127;DHT22;7664;52.008;4.748;2022-08-03T07:39:42;31.60;99.90
15127;DHT22;7664;52.008;4.748;2022-08-03T07:42:10;31.90;99.50
15127;DHT22;7664;52.008;4.748;2022-08-03T07:44:38;32.10;99.40
15127;DHT22;7664;52.008;4.748;2022-08-03T07:47:06;32.70;99.00
15127;DHT22;7664;52.008;4.748;2022-08-03T07:49:39;33.10;96.80
15127;DHT22;7664;52.008;4.748;2022-08-03T07:52:07;33.20;93.40
15127;DHT22;7664;52.008;4.748;2022-08-03T07:54:54;33.00;93.70
15127;DHT22;7664;52.008;4.748;2022-08-03T07:57:22;32.60;93.80
15127;DHT22;7664;52.008;4.748;2022-08-03T07:59:50;32.60;94.10
15127;DHT22;7664;52.008;4.748;2022-08-03T08:02:28;32.80;93.80
15127;DHT22;7664;52.008;4.748;2022-08-03T08:04:57;33.10;93.90
15127;DHT22;7664;52.008;4.748;2022-08-03T08:07:31;33.40;92.40
15127;DHT22;7664;52.008;4.748;2022-08-03T08:09:59;33.80;92.80
15127;DHT22;7664;52.008;4.748;2022-08-03T08:12:27;34.00;91.80
15127;DHT22;7664;52.008;4.748;2022-08-03T08:14:55;34.00;89.80
15127;DHT22;7664;52.008;4.748;2022-08-03T08:17:23;34.20;90.40
15127;DHT22;7664;52.008;4.748;2022-08-03T08:19:51;34.20;87.60
15127;DHT22;7664;52.008;4.748;2022-08-03T08:22:20;34.00;86.70
15127;DHT22;7664;52.008;4.748;2022-08-03T08:24:57;34.00;87.60
15127;DHT22;7664;52.008;4.748;2022-08-03T08:27:26;34.30;88.10
15127;DHT22;7664;52.008;4.748;2022-08-03T08:30:16;34.40;85.20
15127;DHT22;7664;52.008;4.748;2022-08-03T08:32:46;34.70;83.10
15127;DHT22;7664;52.008;4.748;2022-08-03T08:35:15;34.90;82.50
15127;DHT22;7664;52.008;4.748;2022-08-03T08:37:45;35.00;82.10
15127;DHT22;7664;52.008;4.748;2022-08-03T08:40:19;35.30;80.40
15127;DHT22;7664;52.008;4.748;2022-08-03T08:42:48;35.50;77.50
15127;DHT22;7664;52.008;4.748;2022-08-03T08:45:25;35.60;77.20
15127;DHT22;7664;52.008;4.748;2022-08-03T08:47:54;35.60;76.60
15127;DHT22;7664;52.008;4.748;2022-08-03T08:50:29;35.70;75.60
15127;DHT22;7664;52.008;4.748;2022-08-03T08:53:01;35.80;74.00
15127;DHT22;7664;52.008;4.748;2022-08-03T08:55:30;35.80;73.00
15127;DHT22;7664;52.008;4.748;2022-08-03T08:58:20;35.70;71.80
15127;DHT22;7664;52.008;4.748;2022-08-03T09:00:49;35.80;71.60
15127;DHT22;7664;52.008;4.748;2022-08-03T09:03:17;36.00;70.80
15127;DHT22;7664;52.008;4.748;2022-08-03T09:05:57;36.00;70.70
15127;DHT22;7664;52.008;4.748;2022-08-03T09:08:27;35.90;70.00
15127;DHT22;7664;52.008;4.748;2022-08-03T09:10:55;35.90;69.00
15127;DHT22;7664;52.008;4.748;2022-08-03T09:13:23;36.00;68.50
15127;DHT22;7664;52.008;4.748;2022-08-03T09:16:07;35.90;67.80
15127;DHT22;7664;52.008;4.748;2022-08-03T09:18:35;36.00;66.40
15127;DHT22;7664;52.008;4.748;2022-08-03T09:21:15;36.00;69.10
15127;DHT22;7664;52.008;4.748;2022-08-03T09:23:59;36.10;65.70
15127;DHT22;7664;52.008;4.748;2022-08-03T09:26:32;35.90;65.10
15127;DHT22;7664;52.008;4.748;2022-08-03T09:29:03;35.60;65.00
15127;DHT22;7664;52.008;4.748;2022-08-03T09:31:41;35.50;65.70
15127;DHT22;7664;52.008;4.748;2022-08-03T09:34:12;35.50;66.50
15127;DHT22;7664;52.008;4.748;2022-08-03T09:36:42;35.40;66.20
15127;DHT22;7664;52.008;4.748;2022-08-03T09:39:12;35.40;66.40
15127;DHT22;7664;52.008;4.748;2022-08-03T09:41:42;35.10;65.30
15127;DHT22;7664;52.008;4.748;2022-08-03T09:44:10;35.10;66.70
15127;DHT22;7664;52.008;4.748;2022-08-03T09:46:53;34.90;65.60
15127;DHT22;7664;52.008;4.748;2022-08-03T09:49:22;34.80;66.50
15127;DHT22;7664;52.008;4.748;2022-08-03T09:51:50;34.60;64.80
15127;DHT22;7664;52.008;4.748;2022-08-03T09:54:41;34.50;65.70
15127;DHT22;7664;52.008;4.748;2022-08-03T09:57:20;34.30;66.20
15127;DHT22;7664;52.008;4.748;2022-08-03T09:59:49;34.00;64.50
15127;DHT22;7664;52.008;4.748;2022-08-03T10:02:30;33.90;66.20
15127;DHT22;7664;52.008;4.748;2022-08-03T10:04:58;33.90;66.40
15127;DHT22;7664;52.008;4.748;2022-08-03T10:07:26;34.00;66.20
15127;DHT22;7664;52.008;4.748;2022-08-03T10:09:57;34.00;66.10
15127;DHT22;7664;52.008;4.748;2022-08-03T10:12:46;33.90;66.10
15127;DHT22;7664;52.008;4.748;2022-08-03T10:15:14;33.80;66.00
15127;DHT22;7664;52.008;4.748;2022-08-03T10:18:03;33.70;65.20
15127;DHT22;7664;52.008;4.748;2022-08-03T10:20:32;33.60;64.90
15127;DHT22;7664;52.008;4.748;2022-08-03T10:23:03;33.60;65.60
15127;DHT22;7664;52.008;4.748;2022-08-03T10:25:33;33.50;63.80
15127;DHT22;7664;52.008;4.748;2022-08-03T10:28:03;33.30;64.70
15127;DHT22;7664;52.008;4.748;2022-08-03T10:30:32;33.40;66.70
15127;DHT22;7664;52.008;4.748;2022-08-03T10:33:03;33.50;66.30
15127;DHT22;7664;52.008;4.748;2022-08-03T10:35:53;33.30;64.70
15127;DHT22;7664;52.008;4.748;2022-08-03T10:38:25;33.20;66.10
15127;DHT22;7664;52.008;4.748;2022-08-03T10:40:58;32.90;65.30
15127;DHT22;7664;52.008;4.748;2022-08-03T10:43:32;32.70;63.50
15127;DHT22;7664;52.008;4.748;2022-08-03T10:46:01;32.50;64.90
15127;DHT22;7664;52.008;4.748;2022-08-03T10:48:30;32.50;65.20
15127;DHT22;7664;52.008;4.748;2022-08-03T10:50:58;32.50;66.00
15127;DHT22;7664;52.008;4.748;2022-08-03T10:53:36;32.40;66.00
15127;DHT22;7664;52.008;4.748;2022-08-03T10:56:06;32.30;64.60
15127;DHT22;7664;52.008;4.748;2022-08-03T10:59:16;32.30;65.80
15127;DHT22;7664;52.008;4.748;2022-08-03T11:01:55;32.10;65.80
15127;DHT22;7664;52.008;4.748;2022-08-03T11:04:27;31.90;66.20
15127;DHT22;7664;52.008;4.748;2022-08-03T11:07:18;31.80;66.20
15127;DHT22;7664;52.008;4.748;2022-08-03T11:09:49;31.70;65.80
15127;DHT22;7664;52.008;4.748;2022-08-03T11:12:24;31.50;65.60
15127;DHT22;7664;52.008;4.748;2022-08-03T11:14:59;31.40;65.80
15127;DHT22;7664;52.008;4.748;2022-08-03T11:17:28;31.30;66.30
15127;DHT22;7664;52.008;4.748;2022-08-03T11:19:56;31.10;65.90
15127;DHT22;7664;52.008;4.748;2022-08-03T11:22:25;31.10;66.00
15127;DHT22;7664;52.008;4.748;2022-08-03T11:25:13;31.00;66.30
15127;DHT22;7664;52.008;4.748;2022-08-03T11:28:25;30.80;66.60
15127;DHT22;7664;52.008;4.748;2022-08-03T11:30:53;30.70;67.10
15127;DHT22;7664;52.008;4.748;2022-08-03T11:33:28;30.60;67.00
15127;DHT22;7664;52.008;4.748;2022-08-03T11:36:00;30.60;68.10
15127;DHT22;7664;52.008;4.748;2022-08-03T11:38:28;30.60;68.20
15127;DHT22;7664;52.008;4.748;2022-08-03T11:40:56;30.50;67.90
15127;DHT22;7664;52.008;4.748;2022-08-03T11:43:45;30.60;68.30
15127;DHT22;7664;52.008;4.748;2022-08-03T11:46:14;30.50;68.30
15127;DHT22;7664;52.008;4.748;2022-08-03T11:49:03;30.40;68.60
15127;DHT22;7664;52.008;4.748;2022-08-03T11:51:36;30.40;69.10
15127;DHT22;7664;52.008;4.748;2022-08-03T11:54:06;30.40;69.00
15127;DHT22;7664;52.008;4.748;2022-08-03T11:56:44;30.40;68.20
15127;DHT22;7664;52.008;4.748;2022-08-03T11:59:14;30.50;70.00
15127;DHT22;7664;52.008;4.748;2022-08-03T12:01:48;30.40;69.80
15127;DHT22;7664;52.008;4.748;2022-08-03T12:04:16;30.30;69.80
15127;DHT22;7664;52.008;4.748;2022-08-03T12:06:57;30.40;70.30
15127;DHT22;7664;52.008;4.748;2022-08-03T12:09:26;30.40;70.10
15127;DHT22;7664;52.008;4.748;2022-08-03T12:11:53;30.40;69.60
15127;DHT22;7664;52.008;4.748;2022-08-03T12:14:28;30.30;69.90
15127;DHT22;7664;52.008;4.748;2022-08-03T12:17:15;30.40;70.70
15127;DHT22;7664;52.008;4.748;2022-08-03T12:19:44;30.40;70.90
15127;DHT22;7664;52.008;4.748;2022-08-03T12:22:12;30.50;70.80
15127;DHT22;7664;52.008;4.748;2022-08-03T12:24:41;30.60;71.30
15127;DHT22;7664;52.008;4.748;2022-08-03T12:27:22;30.60;70.50
15127;DHT22;7664;52.008;4.748;2022-08-03T12:29:52;30.70;71.10
15127;DHT22;7664;52.008;4.748;2022-08-03T12:32:24;30.70;70.70
15127;DHT22;7664;52.008;4.748;2022-08-03T12:34:53;30.70;71.10
15127;DHT22;7664;52.008;4.748;2022-08-03T12:37:26;30.70;71.70
15127;DHT22;7664;52.008;4.748;2022-08-03T12:39:56;30.70;71.30
15127;DHT22;7664;52.008;4.748;2022-08-03T12:42:32;30.70;71.70
15127;DHT22;7664;52.008;4.748;2022-08-03T12:45:20;30.80;72.70
15127;DHT22;7664;52.008;4.748;2022-08-03T12:47:50;30.80;72.80
15127;DHT22;7664;52.008;4.748;2022-08-03T12:50:29;30.90;72.40
15127;DHT22;7664;52.008;4.748;2022-08-03T12:52:59;30.90;72.30
15127;DHT22;7664;52.008;4.748;2022-08-03T12:55:27;31.00;71.90
15127;DHT22;7664;52.008;4.748;2022-08-03T12:58:30;31.00;72.10
15127;DHT22;7664;52.008;4.748;2022-08-03T13:01:03;30.90;71.60
15127;DHT22;7664;52.008;4.748;2022-08-03T13:03:40;31.00;72.30
15127;DHT22;7664;52.008;4.748;2022-08-03T13:06:11;31.10;71.20
15127;DHT22;7664;52.008;4.748;2022-08-03T13:08:41;31.00;70.80
15127;DHT22;7664;52.008;4.748;2022-08-03T13:11:23;31.00;71.20
15127;DHT22;7664;52.008;4.748;2022-08-03T13:14:11;31.00;70.70
15127;DHT22;7664;52.008;4.748;2022-08-03T13:16:47;31.00;71.50
15127;DHT22;7664;52.008;4.748;2022-08-03T13:19:17;31.10;72.30
15127;DHT22;7664;52.008;4.748;2022-08-03T13:21:46;31.10;71.80
15127;DHT22;7664;52.008;4.748;2022-08-03T13:24:29;31.20;71.20
15127;DHT22;7664;52.008;4.748;2022-08-03T13:26:57;31.20;71.10
15127;DHT22;7664;52.008;4.748;2022-08-03T13:29:25;31.20;71.50
15127;DHT22;7664;52.008;4.748;2022-08-03T13:31:58;31.30;71.60
15127;DHT22;7664;52.008;4.748;2022-08-03T13:34:27;31.30;71.00
15127;DHT22;7664;52.008;4.748;2022-08-03T13:36:55;31.30;71.20
15127;DHT22;7664;52.008;4.748;2022-08-03T13:39:35;31.40;70.30
15127;DHT22;7664;52.008;4.748;2022-08-03T13:42:23;31.40;69.30
15127;DHT22;7664;52.008;4.748;2022-08-03T13:44:51;31.40;70.30
15127;DHT22;7664;52.008;4.748;2022-08-03T13:47:23;31.40;69.50
15127;DHT22;7664;52.008;4.748;2022-08-03T13:49:50;31.50;68.70
15127;DHT22;7664;52.008;4.748;2022-08-03T13:52:29;31.40;68.70
15127;DHT22;7664;52.008;4.748;2022-08-03T13:54:58;31.40;68.60
15127;DHT22;7664;52.008;4.748;2022-08-03T13:57:26;31.30;68.40
15127;DHT22;7664;52.008;4.748;2022-08-03T14:00:16;31.30;69.10
15127;DHT22;7664;52.008;4.748;2022-08-03T14:02:56;31.30;68.50
15127;DHT22;7664;52.008;4.748;2022-08-03T14:05:32;31.20;68.20
15127;DHT22;7664;52.008;4.748;2022-08-03T14:08:01;31.20;68.10
15127;DHT22;7664;52.008;4.748;2022-08-03T14:10:33;31.20;68.20
15127;DHT22;7664;52.008;4.748;2022-08-03T14:13:01;31.20;68.70
15127;DHT22;7664;52.008;4.748;2022-08-03T14:15:30;31.20;69.40
15127;DHT22;7664;52.008;4.748;2022-08-03T14:18:06;31.20;69.20
15127;DHT22;7664;52.008;4.748;2022-08-03T14:20:53;31.20;68.10
15127;DHT22;7664;52.008;4.748;2022-08-03T14:23:23;31.20;68.20
15127;DHT22;7664;52.008;4.748;2022-08-03T14:25:52;31.30;67.80
15127;DHT22;7664;52.008;4.748;2022-08-03T14:28:22;31.20;68.40
15127;DHT22;7664;52.008;4.748;2022-08-03T14:30:54;31.20;68.10
15127;DHT22;7664;52.008;4.748;2022-08-03T14:33:24;31.30;68.90
15127;DHT22;7664;52.008;4.748;2022-08-03T14:35:54;31.30;68.40
15127;DHT22;7664;52.008;4.748;2022-08-03T14:38:22;31.30;68.90
15127;DHT22;7664;52.008;4.748;2022-08-03T14:40:50;31.40;68.80
15127;DHT22;7664;52.008;4.748;2022-08-03T14:43:19;31.50;68.80
15127;DHT22;7664;52.008;4.748;2022-08-03T14:45:48;31.40;68.60
15127;DHT22;7664;52.008;4.748;2022-08-03T14:48:18;31.50;68.00
15127;DHT22;7664;52.008;4.748;2022-08-03T14:51:08;31.40;67.80
15127;DHT22;7664;52.008;4.748;2022-08-03T14:53:37;31.30;68.50
15127;DHT22;7664;52.008;4.748;2022-08-03T14:56:05;31.40;69.50
15127;DHT22;7664;52.008;4.748;2022-08-03T14:58:37;31.40;69.80
15127;DHT22;7664;52.008;4.748;2022-08-03T15:01:05;31.50;69.50
15127;DHT22;7664;52.008;4.748;2022-08-03T15:03:54;31.60;69.60
15127;DHT22;7664;52.008;4.748;2022-08-03T15:06:23;31.60;69.70
15127;DHT22;7664;52.008;4.748;2022-08-03T15:08:51;31.60;68.00
15127;DHT22;7664;52.008;4.748;2022-08-03T15:11:40;31.50;68.20
15127;DHT22;7664;52.008;4.748;2022-08-03T15:14:08;31.50;68.60
15127;DHT22;7664;52.008;4.748;2022-08-03T15:16:39;31.50;69.20
15127;DHT22;7664;52.008;4.748;2022-08-03T15:19:07;31.50;67.80
15127;DHT22;7664;52.008;4.748;2022-08-03T15:21:56;31.50;67.70
15127;DHT22;7664;52.008;4.748;2022-08-03T15:24:27;31.30;68.10
15127;DHT22;7664;52.008;4.748;2022-08-03T15:26:59;31.20;68.40
15127;DHT22;7664;52.008;4.748;2022-08-03T15:29:32;31.40;68.50
15127;DHT22;7664;52.008;4.748;2022-08-03T15:32:21;31.30;68.80
15127;DHT22;7664;52.008;4.748;2022-08-03T15:34:52;31.30;69.00
15127;DHT22;7664;52.008;4.748;2022-08-03T15:37:22;31.20;68.50
15127;DHT22;7664;52.008;4.748;2022-08-03T15:39:52;31.30;69.30
15127;DHT22;7664;52.008;4.748;2022-08-03T15:42:29;31.20;68.90
15127;DHT22;7664;52.008;4.748;2022-08-03T15:44:58;31.10;69.60
15127;DHT22;7664;52.008;4.748;2022-08-03T15:47:26;31.20;69.40
15127;DHT22;7664;52.008;4.748;2022-08-03T15:49:54;31.10;69.10
15127;DHT22;7664;52.008;4.748;2022-08-03T15:52:23;31.10;69.80
15127;DHT22;7664;52.008;4.748;2022-08-03T15:54:51;31.10;69.80
15127;DHT22;7664;52.008;4.748;2022-08-03T15:57:19;31.20;69.00
15127;DHT22;7664;52.008;4.748;2022-08-03T15:59:48;31.10;69.40
15127;DHT22;7664;52.008;4.748;2022-08-03T16:02:16;31.20;69.50
15127;DHT22;7664;52.008;4.748;2022-08-03T16:04:45;31.00;69.20
15127;DHT22;7664;52.008;4.748;2022-08-03T16:07:13;31.20;69.60
15127;DHT22;7664;52.008;4.748;2022-08-03T16:09:43;31.10;69.40
15127;DHT22;7664;52.008;4.748;2022-08-03T16:12:11;31.20;69.50
15127;DHT22;7664;52.008;4.748;2022-08-03T16:14:42;31.20;68.80
15127;DHT22;7664;52.008;4.748;2022-08-03T16:17:18;31.00;67.90
15127;DHT22;7664;52.008;4.748;2022-08-03T16:19:49;30.90;68.20
15127;DHT22;7664;52.008;4.748;2022-08-03T16:22:21;30.90;69.00